Ackermanville, PA

8:24 AM EST on March 04, 2015 (GMT -0500)
Callie's Farm | Change Station
CLOSE
Current Station
Personal Weather Station
Location: Bangor, PA
Elevation: 725 ft
Nearby Weather Stations
Active Advisory: Winter Storm Watch

Elev 725 ft 40.87 °N, 75.17 °W | Updated 4 minutes ago

Rain
Rain
33.0 °F
Feels Like 33 °F
N
0.0
Wind Variable Wind from SW
Gusts 0.0 mph

Today
High -- | Low -- °F
--% Chance of Precip.
Yesterday
High -- | Low -- °F
Precip. -- in
6:30 AM 5:55 PM
Waxing Gibbous, 99% visible
Pressure 29.85 in
Visibility 1.8 miles
Clouds Mostly Cloudy 8000 ft
Overcast 9000 ft
Windchill 33 °F
Dew Point 33 °F
Humidity 99%
Rainfall 0.00 in
Snow Depth Not available.
UV 0 out of 12
Pollen .60 out of 12
Air Quality Not available.
Flu Activity Not available.
METAR KABE 041251Z 21008KT 1 3/4SM -RA BR BKN080 OVC090 02/M01 A2984 RMK AO2 TWR VIS 2 RAB03 SLP108 P0002 T00171006

More Conditions Fewer Conditions

Pressure 29.85 in
Visibility 1.8 miles
Clouds Mostly Cloudy 8000 ft
Overcast 9000 ft
Windchill 33 °F
Dew Point 33 °F
Humidity 99%
Rainfall 0.00 in
Snow Depth Not available.
UV 0 out of 12
Pollen .60 out of 12
Air Quality Not available.
Flu Activity Not available.
METAR KABE 041251Z 21008KT 1 3/4SM -RA BR BKN080 OVC090 02/M01 A2984 RMK AO2 TWR VIS 2 RAB03 SLP108 P0002 T00171006

More Conditions Fewer Conditions

10-Day Weather Forecast

Almanac

Astronomy

Mar. 04, 2015 Rise Set
Actual Time
Civil Twilight
Nautical Twilight
Astronomical Twilight
Moon
Length of Visible Light
Length of Day
Tomorrow will be .
, % of the Moon is Illuminated

Today's Extremes

State Highs State Lows

Community

WunderPhotos

Upload Photos

1,802,449 photos uploaded!

WunderBlogs® & News

Nearby

Air Quality

  Air Quality AQ Index Pollutant
Not available.

Snow Depth

Station Depth Elevation

Earthquake Activity

City Distance Mag. Time & Date
Minimum magnitude displayed is 2.5.

Coastal Water Temperatures

Place Temperature

Nearby Weather Stations

Winter Storm Watch
Statement as of 5:48 AM EST on March 04, 2015

... Winter Storm Watch remains in effect from this evening through
Thursday evening...
... Winter Weather Advisory is cancelled...

* hazard types... a steady accumulating snow from tonight into
Thursday.

* Snow accumulations... the potential for 3 to 7 inches.

* Timing... rain will change to snow this evening and the snow
will continue into Thursday.

* Impacts... significant travel impacts are expected for tonight
and Thursday.

Precautionary/preparedness actions...

This Winter Storm Watch means that there is a potential for
significant snow that may impact travel. Continue to monitor the
latest forecasts.